sensor_id;sensor_type;location;lat;lon;timestamp;pressure;altitude;pressure_sealevel;temperature;humidity
6349;BME280;3207;42.648;23.406;2023-04-08T00:01:32;100124.50;;;9.58;nan
6349;BME280;3207;42.648;23.406;2023-04-08T00:04:00;100121.06;;;9.57;nan
6349;BME280;3207;42.648;23.406;2023-04-08T00:06:27;100126.69;;;9.51;nan
6349;BME280;3207;42.648;23.406;2023-04-08T00:08:54;100120.13;;;9.58;nan
6349;BME280;3207;42.648;23.406;2023-04-08T00:11:21;100113.88;;;9.61;nan
6349;BME280;3207;42.648;23.406;2023-04-08T00:13:47;100119.72;;;9.77;nan
6349;BME280;3207;42.648;23.406;2023-04-08T00:16:14;100114.69;;;9.86;nan
6349;BME280;3207;42.648;23.406;2023-04-08T00:18:41;100120.06;;;9.85;nan
6349;BME280;3207;42.648;23.406;2023-04-08T00:21:09;100118.25;;;9.85;nan
6349;BME280;3207;42.648;23.406;2023-04-08T00:23:36;100118.69;;;9.92;nan
6349;BME280;3207;42.648;23.406;2023-04-08T00:26:03;100107.59;;;9.88;nan
6349;BME280;3207;42.648;23.406;2023-04-08T00:28:30;100114.91;;;9.96;nan
6349;BME280;3207;42.648;23.406;2023-04-08T00:30:56;100116.28;;;10.02;nan
6349;BME280;3207;42.648;23.406;2023-04-08T00:33:23;100113.13;;;10.09;nan
6349;BME280;3207;42.648;23.406;2023-04-08T00:35:50;100115.53;;;10.12;nan
6349;BME280;3207;42.648;23.406;2023-04-08T00:38:18;100114.91;;;10.09;nan
6349;BME280;3207;42.648;23.406;2023-04-08T00:40:45;100128.28;;;10.17;nan
6349;BME280;3207;42.648;23.406;2023-04-08T00:43:12;100122.75;;;10.21;nan
6349;BME280;3207;42.648;23.406;2023-04-08T00:45:40;100122.97;;;10.18;nan
6349;BME280;3207;42.648;23.406;2023-04-08T00:48:07;100126.84;;;10.25;nan
6349;BME280;3207;42.648;23.406;2023-04-08T00:50:34;100127.34;;;10.31;nan
6349;BME280;3207;42.648;23.406;2023-04-08T00:53:01;100119.31;;;10.34;nan
6349;BME280;3207;42.648;23.406;2023-04-08T00:55:29;100123.06;;;10.30;nan
6349;BME280;3207;42.648;23.406;2023-04-08T00:57:57;100121.53;;;10.27;nan
6349;BME280;3207;42.648;23.406;2023-04-08T01:00:24;100123.31;;;10.26;nan
6349;BME280;3207;42.648;23.406;2023-04-08T01:02:58;100114.28;;;10.18;nan
6349;BME280;3207;42.648;23.406;2023-04-08T01:05:30;100113.25;;;10.20;nan
6349;BME280;3207;42.648;23.406;2023-04-08T01:08:01;100113.44;;;10.30;nan
6349;BME280;3207;42.648;23.406;2023-04-08T01:10:34;100108.22;;;10.30;nan
6349;BME280;3207;42.648;23.406;2023-04-08T01:13:08;100113.88;;;10.37;nan
6349;BME280;3207;42.648;23.406;2023-04-08T01:15:37;100120.03;;;10.36;nan
6349;BME280;3207;42.648;23.406;2023-04-08T01:18:08;100111.78;;;10.29;nan
6349;BME280;3207;42.648;23.406;2023-04-08T01:20:37;100104.69;;;10.18;nan
6349;BME280;3207;42.648;23.406;2023-04-08T01:23:09;100102.69;;;10.22;nan
6349;BME280;3207;42.648;23.406;2023-04-08T01:25:44;100094.13;;;10.07;nan
6349;BME280;3207;42.648;23.406;2023-04-08T01:28:13;100096.31;;;10.13;nan
6349;BME280;3207;42.648;23.406;2023-04-08T01:30:42;100097.06;;;10.15;nan
6349;BME280;3207;42.648;23.406;2023-04-08T01:33:12;100076.25;;;10.14;nan
6349;BME280;3207;42.648;23.406;2023-04-08T01:35:40;100076.84;;;10.17;nan
6349;BME280;3207;42.648;23.406;2023-04-08T01:38:08;100082.94;;;10.18;nan
6349;BME280;3207;42.648;23.406;2023-04-08T01:40:37;100082.31;;;10.14;nan
6349;BME280;3207;42.648;23.406;2023-04-08T01:43:09;100090.78;;;10.05;nan
6349;BME280;3207;42.648;23.406;2023-04-08T01:45:37;100087.00;;;10.09;nan
6349;BME280;3207;42.648;23.406;2023-04-08T01:48:04;100034.00;;;9.83;nan
6349;BME280;3207;42.648;23.406;2023-04-08T01:50:33;100089.31;;;10.14;nan
6349;BME280;3207;42.648;23.406;2023-04-08T01:53:01;100078.97;;;10.00;nan
6349;BME280;3207;42.648;23.406;2023-04-08T01:55:31;100082.63;;;9.97;nan
6349;BME280;3207;42.648;23.406;2023-04-08T01:57:59;100082.63;;;9.97;nan
6349;BME280;3207;42.648;23.406;2023-04-08T02:00:29;100077.09;;;9.89;nan
6349;BME280;3207;42.648;23.406;2023-04-08T02:02:57;100083.38;;;9.99;nan
6349;BME280;3207;42.648;23.406;2023-04-08T02:05:25;100085.44;;;10.07;nan
6349;BME280;3207;42.648;23.406;2023-04-08T02:07:52;100079.81;;;10.00;nan
6349;BME280;3207;42.648;23.406;2023-04-08T02:10:19;100084.19;;;10.00;nan
6349;BME280;3207;42.648;23.406;2023-04-08T02:12:45;100082.53;;;9.99;nan
6349;BME280;3207;42.648;23.406;2023-04-08T02:15:13;100081.28;;;10.04;nan
6349;BME280;3207;42.648;23.406;2023-04-08T02:17:43;100089.13;;;10.04;nan
6349;BME280;3207;42.648;23.406;2023-04-08T02:20:16;100084.19;;;10.00;nan
6349;BME280;3207;42.648;23.406;2023-04-08T02:22:47;100087.25;;;9.94;nan
6349;BME280;3207;42.648;23.406;2023-04-08T02:25:16;100084.84;;;9.90;nan
6349;BME280;3207;42.648;23.406;2023-04-08T02:27:46;100084.63;;;9.81;nan
6349;BME280;3207;42.648;23.406;2023-04-08T02:30:14;100090.06;;;9.78;nan
6349;BME280;3207;42.648;23.406;2023-04-08T02:32:44;100092.38;;;9.82;nan
6349;BME280;3207;42.648;23.406;2023-04-08T02:35:11;100089.13;;;9.79;nan
6349;BME280;3207;42.648;23.406;2023-04-08T02:37:40;100091.94;;;9.76;nan
6349;BME280;3207;42.648;23.406;2023-04-08T02:40:22;100087.44;;;9.78;nan
6349;BME280;3207;42.648;23.406;2023-04-08T02:42:48;100084.84;;;9.52;nan
6349;BME280;3207;42.648;23.406;2023-04-08T02:45:16;100080.22;;;9.56;nan
6349;BME280;3207;42.648;23.406;2023-04-08T02:47:44;100092.16;;;9.60;nan
6349;BME280;3207;42.648;23.406;2023-04-08T02:50:11;100086.63;;;9.52;nan
6349;BME280;3207;42.648;23.406;2023-04-08T02:52:37;100084.72;;;9.54;nan
6349;BME280;3207;42.648;23.406;2023-04-08T02:55:06;99869.25;;;8.23;nan
6349;BME280;3207;42.648;23.406;2023-04-08T02:57:34;100086.28;;;9.57;nan
6349;BME280;3207;42.648;23.406;2023-04-08T03:00:02;100073.16;;;9.58;nan
6349;BME280;3207;42.648;23.406;2023-04-08T03:02:29;100084.22;;;9.62;nan
6349;BME280;3207;42.648;23.406;2023-04-08T03:04:58;100080.53;;;9.64;nan
6349;BME280;3207;42.648;23.406;2023-04-08T03:07:25;100080.69;;;9.63;nan
6349;BME280;3207;42.648;23.406;2023-04-08T03:09:52;100077.63;;;9.56;nan
6349;BME280;3207;42.648;23.406;2023-04-08T03:12:20;100082.09;;;9.54;nan
6349;BME280;3207;42.648;23.406;2023-04-08T03:14:47;100083.78;;;9.55;nan
6349;BME280;3207;42.648;23.406;2023-04-08T03:17:14;100076.78;;;9.55;nan
6349;BME280;3207;42.648;23.406;2023-04-08T03:19:41;100076.03;;;9.53;nan
6349;BME280;3207;42.648;23.406;2023-04-08T03:22:09;100078.47;;;9.57;nan
6349;BME280;3207;42.648;23.406;2023-04-08T03:24:36;100075.56;;;9.61;nan
6349;BME280;3207;42.648;23.406;2023-04-08T03:27:03;100073.69;;;9.63;nan
6349;BME280;3207;42.648;23.406;2023-04-08T03:29:29;100045.81;;;9.51;nan
6349;BME280;3207;42.648;23.406;2023-04-08T03:31:56;100071.69;;;9.67;nan
6349;BME280;3207;42.648;23.406;2023-04-08T03:34:23;100080.34;;;9.67;nan
6349;BME280;3207;42.648;23.406;2023-04-08T03:36:50;100066.34;;;9.55;nan
6349;BME280;3207;42.648;23.406;2023-04-08T03:39:18;100080.34;;;9.67;nan
6349;BME280;3207;42.648;23.406;2023-04-08T03:41:45;100079.41;;;9.55;nan
6349;BME280;3207;42.648;23.406;2023-04-08T03:44:12;100073.34;;;9.55;nan
6349;BME280;3207;42.648;23.406;2023-04-08T03:46:39;100073.88;;;9.60;nan
6349;BME280;3207;42.648;23.406;2023-04-08T03:49:05;100073.78;;;9.62;nan
6349;BME280;3207;42.648;23.406;2023-04-08T03:51:32;100073.78;;;9.62;nan
6349;BME280;3207;42.648;23.406;2023-04-08T03:53:59;100077.31;;;9.61;nan
6349;BME280;3207;42.648;23.406;2023-04-08T03:56:27;100080.03;;;9.59;nan
6349;BME280;3207;42.648;23.406;2023-04-08T03:58:54;100082.53;;;9.61;nan
6349;BME280;3207;42.648;23.406;2023-04-08T04:01:21;100082.13;;;9.67;nan
6349;BME280;3207;42.648;23.406;2023-04-08T04:03:48;100080.25;;;9.69;nan
6349;BME280;3207;42.648;23.406;2023-04-08T04:06:14;100087.97;;;9.70;nan
6349;BME280;3207;42.648;23.406;2023-04-08T04:08:41;100084.44;;;9.71;nan
6349;BME280;3207;42.648;23.406;2023-04-08T04:11:08;100087.13;;;9.70;nan
6349;BME280;3207;42.648;23.406;2023-04-08T04:13:36;100088.38;;;9.77;nan
6349;BME280;3207;42.648;23.406;2023-04-08T04:16:04;100090.06;;;9.78;nan
6349;BME280;3207;42.648;23.406;2023-04-08T04:18:30;100086.50;;;9.79;nan
6349;BME280;3207;42.648;23.406;2023-04-08T04:20:57;100090.50;;;9.72;nan
6349;BME280;3207;42.648;23.406;2023-04-08T04:23:24;100097.16;;;9.76;nan
6349;BME280;3207;42.648;23.406;2023-04-08T04:25:51;100094.25;;;9.80;nan
6349;BME280;3207;42.648;23.406;2023-04-08T04:28:17;100101.88;;;9.71;nan
6349;BME280;3207;42.648;23.406;2023-04-08T04:30:46;100096.53;;;9.72;nan
6349;BME280;3207;42.648;23.406;2023-04-08T04:33:12;100094.53;;;9.76;nan
6349;BME280;3207;42.648;23.406;2023-04-08T04:35:39;100099.38;;;9.82;nan
6349;BME280;3207;42.648;23.406;2023-04-08T04:38:06;100099.75;;;9.76;nan
6349;BME280;3207;42.648;23.406;2023-04-08T04:40:36;100096.13;;;9.78;nan
6349;BME280;3207;42.648;23.406;2023-04-08T04:43:03;100100.31;;;9.81;nan
6349;BME280;3207;42.648;23.406;2023-04-08T04:45:30;100110.09;;;9.77;nan
6349;BME280;3207;42.648;23.406;2023-04-08T04:47:59;100104.59;;;9.82;nan
6349;BME280;3207;42.648;23.406;2023-04-08T04:50:25;100107.00;;;9.85;nan
6349;BME280;3207;42.648;23.406;2023-04-08T04:52:52;100107.94;;;9.84;nan
6349;BME280;3207;42.648;23.406;2023-04-08T04:55:19;100107.00;;;9.85;nan
6349;BME280;3207;42.648;23.406;2023-04-08T04:57:47;100087.53;;;9.76;nan
6349;BME280;3207;42.648;23.406;2023-04-08T05:00:14;100110.66;;;9.95;nan
6349;BME280;3207;42.648;23.406;2023-04-08T05:02:41;100113.66;;;10.02;nan
6349;BME280;3207;42.648;23.406;2023-04-08T05:05:09;100107.81;;;9.98;nan
6349;BME280;3207;42.648;23.406;2023-04-08T05:07:36;100101.44;;;10.02;nan
6349;BME280;3207;42.648;23.406;2023-04-08T05:10:04;100067.84;;;9.85;nan
6349;BME280;3207;42.648;23.406;2023-04-08T05:12:31;100118.88;;;10.14;nan
6349;BME280;3207;42.648;23.406;2023-04-08T05:14:58;100115.75;;;10.22;nan
6349;BME280;3207;42.648;23.406;2023-04-08T05:17:25;100114.28;;;10.31;nan
6349;BME280;3207;42.648;23.406;2023-04-08T05:19:51;100104.47;;;10.34;nan
6349;BME280;3207;42.648;23.406;2023-04-08T05:22:20;100113.63;;;10.40;nan
6349;BME280;3207;42.648;23.406;2023-04-08T05:24:46;100117.63;;;10.45;nan
6349;BME280;3207;42.648;23.406;2023-04-08T05:27:13;100120.53;;;10.41;nan
6349;BME280;3207;42.648;23.406;2023-04-08T05:29:40;100123.25;;;10.39;nan
6349;BME280;3207;42.648;23.406;2023-04-08T05:32:07;100122.72;;;10.47;nan
6349;BME280;3207;42.648;23.406;2023-04-08T05:34:34;100111.94;;;10.51;nan
6349;BME280;3207;42.648;23.406;2023-04-08T05:37:00;100123.19;;;10.64;nan
6349;BME280;3207;42.648;23.406;2023-04-08T05:39:28;100120.47;;;10.66;nan
6349;BME280;3207;42.648;23.406;2023-04-08T05:41:55;100129.56;;;10.73;nan
6349;BME280;3207;42.648;23.406;2023-04-08T05:44:22;100117.72;;;10.44;nan
6349;BME280;3207;42.648;23.406;2023-04-08T05:46:49;100135.50;;;10.75;nan
6349;BME280;3207;42.648;23.406;2023-04-08T05:49:16;100117.59;;;10.58;nan
6349;BME280;3207;42.648;23.406;2023-04-08T05:51:42;100133.84;;;10.74;nan
6349;BME280;3207;42.648;23.406;2023-04-08T05:54:09;100132.34;;;10.83;nan
6349;BME280;3207;42.648;23.406;2023-04-08T05:56:38;100136.91;;;10.92;nan
6349;BME280;3207;42.648;23.406;2023-04-08T05:59:04;100129.78;;;10.94;nan
6349;BME280;3207;42.648;23.406;2023-04-08T06:01:31;100131.16;;;10.99;nan
6349;BME280;3207;42.648;23.406;2023-04-08T06:03:58;100141.97;;;11.06;nan
6349;BME280;3207;42.648;23.406;2023-04-08T06:06:25;100134.13;;;11.06;nan
6349;BME280;3207;42.648;23.406;2023-04-08T06:08:51;100119.50;;;11.04;nan
6349;BME280;3207;42.648;23.406;2023-04-08T06:11:18;100130.06;;;11.26;nan
6349;BME280;3207;42.648;23.406;2023-04-08T06:13:46;100133.28;;;11.29;nan
6349;BME280;3207;42.648;23.406;2023-04-08T06:16:14;100131.78;;;11.38;nan
6349;BME280;3207;42.648;23.406;2023-04-08T06:18:42;100136.22;;;11.49;nan
6349;BME280;3207;42.648;23.406;2023-04-08T06:21:09;100135.31;;;11.61;nan
6349;BME280;3207;42.648;23.406;2023-04-08T06:23:36;100134.84;;;11.67;nan
6349;BME280;3207;42.648;23.406;2023-04-08T06:26:02;100137.28;;;11.81;nan
6349;BME280;3207;42.648;23.406;2023-04-08T06:28:30;100137.41;;;11.91;nan
6349;BME280;3207;42.648;23.406;2023-04-08T06:30:58;100142.22;;;11.97;nan
6349;BME280;3207;42.648;23.406;2023-04-08T06:33:25;100145.81;;;12.07;nan
6349;BME280;3207;42.648;23.406;2023-04-08T06:36:01;100147.59;;;12.06;nan
6349;BME280;3207;42.648;23.406;2023-04-08T06:38:29;100143.19;;;12.07;nan
6349;BME280;3207;42.648;23.406;2023-04-08T06:40:56;100148.19;;;11.64;nan
6349;BME280;3207;42.648;23.406;2023-04-08T06:43:27;100142.09;;;11.63;nan
6349;BME280;3207;42.648;23.406;2023-04-08T06:45:54;100144.44;;;11.55;nan
6349;BME280;3207;42.648;23.406;2023-04-08T06:48:22;100140.00;;;11.10;nan
6349;BME280;3207;42.648;23.406;2023-04-08T06:50:53;100148.66;;;11.34;nan
6349;BME280;3207;42.648;23.406;2023-04-08T06:53:21;100148.66;;;11.69;nan
6349;BME280;3207;42.648;23.406;2023-04-08T06:55:48;100156.25;;;11.96;nan
6349;BME280;3207;42.648;23.406;2023-04-08T06:58:15;100151.50;;;12.12;nan
6349;BME280;3207;42.648;23.406;2023-04-08T07:00:42;100152.47;;;12.22;nan
6349;BME280;3207;42.648;23.406;2023-04-08T07:03:09;100148.53;;;12.50;nan
6349;BME280;3207;42.648;23.406;2023-04-08T07:05:37;100151.13;;;12.72;nan
6349;BME280;3207;42.648;23.406;2023-04-08T07:08:06;100158.00;;;12.96;nan
6349;BME280;3207;42.648;23.406;2023-04-08T07:10:33;100152.31;;;12.79;nan
6349;BME280;3207;42.648;23.406;2023-04-08T07:13:00;100150.25;;;12.94;nan
6349;BME280;3207;42.648;23.406;2023-04-08T07:15:27;100154.72;;;13.26;nan
6349;BME280;3207;42.648;23.406;2023-04-08T07:17:54;100158.16;;;13.58;nan
6349;BME280;3207;42.648;23.406;2023-04-08T07:20:21;100155.66;;;13.77;nan
6349;BME280;3207;42.648;23.406;2023-04-08T07:22:50;100159.34;;;13.86;nan
6349;BME280;3207;42.648;23.406;2023-04-08T07:25:17;100160.78;;;14.00;nan
6349;BME280;3207;42.648;23.406;2023-04-08T07:27:43;100159.75;;;14.12;nan
6349;BME280;3207;42.648;23.406;2023-04-08T07:30:11;100169.28;;;14.34;nan
6349;BME280;3207;42.648;23.406;2023-04-08T07:32:38;100168.41;;;14.54;nan
6349;BME280;3207;42.648;23.406;2023-04-08T07:35:05;100172.91;;;14.73;nan
6349;BME280;3207;42.648;23.406;2023-04-08T07:37:32;100181.97;;;14.89;nan
6349;BME280;3207;42.648;23.406;2023-04-08T07:40:00;100178.41;;;15.10;nan
6349;BME280;3207;42.648;23.406;2023-04-08T07:42:27;100176.50;;;15.21;nan
6349;BME280;3207;42.648;23.406;2023-04-08T07:44:54;100179.13;;;15.21;nan
6349;BME280;3207;42.648;23.406;2023-04-08T07:47:21;100178.88;;;15.24;nan
6349;BME280;3207;42.648;23.406;2023-04-08T07:49:48;100186.47;;;15.37;nan
6349;BME280;3207;42.648;23.406;2023-04-08T07:52:14;100191.78;;;15.47;nan
6349;BME280;3207;42.648;23.406;2023-04-08T07:54:42;100191.75;;;15.37;nan
6349;BME280;3207;42.648;23.406;2023-04-08T07:57:10;100190.06;;;15.26;nan
6349;BME280;3207;42.648;23.406;2023-04-08T07:59:37;100186.06;;;15.32;nan
6349;BME280;3207;42.648;23.406;2023-04-08T08:02:03;100193.97;;;15.42;nan
6349;BME280;3207;42.648;23.406;2023-04-08T08:04:30;100189.53;;;15.32;nan
6349;BME280;3207;42.648;23.406;2023-04-08T08:06:57;100196.88;;;15.29;nan
6349;BME280;3207;42.648;23.406;2023-04-08T08:09:24;100203.94;;;15.48;nan
6349;BME280;3207;42.648;23.406;2023-04-08T08:11:51;100206.47;;;15.49;nan
6349;BME280;3207;42.648;23.406;2023-04-08T08:14:19;100204.16;;;15.56;nan
6349;BME280;3207;42.648;23.406;2023-04-08T08:16:46;100210.38;;;15.55;nan
6349;BME280;3207;42.648;23.406;2023-04-08T08:19:14;100213.13;;;15.53;nan
6349;BME280;3207;42.648;23.406;2023-04-08T08:21:40;100205.13;;;15.55;nan
6349;BME280;3207;42.648;23.406;2023-04-08T08:24:07;100212.31;;;15.82;nan
6349;BME280;3207;42.648;23.406;2023-04-08T08:26:34;100202.16;;;16.06;nan
6349;BME280;3207;42.648;23.406;2023-04-08T08:29:02;100206.72;;;16.14;nan
6349;BME280;3207;42.648;23.406;2023-04-08T08:31:31;100209.38;;;16.60;nan
6349;BME280;3207;42.648;23.406;2023-04-08T08:33:57;100206.56;;;16.71;nan
6349;BME280;3207;42.648;23.406;2023-04-08T08:36:24;100206.63;;;17.07;nan
6349;BME280;3207;42.648;23.406;2023-04-08T08:38:52;100214.91;;;17.39;nan
6349;BME280;3207;42.648;23.406;2023-04-08T08:41:19;100206.47;;;17.36;nan
6349;BME280;3207;42.648;23.406;2023-04-08T08:43:46;100212.47;;;17.73;nan
6349;BME280;3207;42.648;23.406;2023-04-08T08:46:16;100201.84;;;17.91;nan
6349;BME280;3207;42.648;23.406;2023-04-08T08:48:44;100219.34;;;18.36;nan
6349;BME280;3207;42.648;23.406;2023-04-08T08:51:12;100213.94;;;18.63;nan
6349;BME280;3207;42.648;23.406;2023-04-08T08:53:39;100224.06;;;18.76;nan
6349;BME280;3207;42.648;23.406;2023-04-08T08:56:09;100210.72;;;18.85;nan
6349;BME280;3207;42.648;23.406;2023-04-08T08:58:36;100224.25;;;19.16;nan
6349;BME280;3207;42.648;23.406;2023-04-08T09:01:29;100218.44;;;19.21;nan
6349;BME280;3207;42.648;23.406;2023-04-08T09:04:08;100219.09;;;19.15;nan
6349;BME280;3207;42.648;23.406;2023-04-08T09:06:35;100218.19;;;18.98;nan
6349;BME280;3207;42.648;23.406;2023-04-08T09:09:02;100230.97;;;19.02;nan
6349;BME280;3207;42.648;23.406;2023-04-08T09:11:30;100173.41;;;18.71;nan
6349;BME280;3207;42.648;23.406;2023-04-08T09:13:57;100227.34;;;19.04;nan
6349;BME280;3207;42.648;23.406;2023-04-08T09:16:24;100226.72;;;19.18;nan
6349;BME280;3207;42.648;23.406;2023-04-08T09:18:52;100229.88;;;19.21;nan
6349;BME280;3207;42.648;23.406;2023-04-08T09:21:21;100227.78;;;18.91;nan
6349;BME280;3207;42.648;23.406;2023-04-08T09:23:50;100228.72;;;19.16;nan
6349;BME280;3207;42.648;23.406;2023-04-08T09:26:18;100228.13;;;19.46;nan
6349;BME280;3207;42.648;23.406;2023-04-08T09:28:57;100215.56;;;19.48;nan
6349;BME280;3207;42.648;23.406;2023-04-08T09:31:25;100224.38;;;19.89;nan
6349;BME280;3207;42.648;23.406;2023-04-08T09:33:54;100228.84;;;19.72;nan
6349;BME280;3207;42.648;23.406;2023-04-08T09:36:23;100240.84;;;19.34;nan
6349;BME280;3207;42.648;23.406;2023-04-08T09:38:51;100229.81;;;19.63;nan
6349;BME280;3207;42.648;23.406;2023-04-08T09:41:19;100231.00;;;19.93;nan
6349;BME280;3207;42.648;23.406;2023-04-08T09:43:49;100234.81;;;20.07;nan
6349;BME280;3207;42.648;23.406;2023-04-08T09:46:17;100237.28;;;20.88;nan
6349;BME280;3207;42.648;23.406;2023-04-08T09:48:56;100234.69;;;21.19;nan
6349;BME280;3207;42.648;23.406;2023-04-08T09:51:27;100234.19;;;21.24;nan
6349;BME280;3207;42.648;23.406;2023-04-08T09:54:00;100236.97;;;21.30;nan
6349;BME280;3207;42.648;23.406;2023-04-08T09:56:38;100232.59;;;21.83;nan
6349;BME280;3207;42.648;23.406;2023-04-08T09:59:11;100233.13;;;22.24;nan
6349;BME280;3207;42.648;23.406;2023-04-08T10:01:44;100230.75;;;22.29;nan
6349;BME280;3207;42.648;23.406;2023-04-08T10:04:14;100248.41;;;22.07;nan
6349;BME280;3207;42.648;23.406;2023-04-08T10:06:43;100237.00;;;21.99;nan
6349;BME280;3207;42.648;23.406;2023-04-08T10:09:10;100237.66;;;22.01;nan
6349;BME280;3207;42.648;23.406;2023-04-08T10:11:38;100233.56;;;21.90;nan
6349;BME280;3207;42.648;23.406;2023-04-08T10:14:05;100236.09;;;21.38;nan
6349;BME280;3207;42.648;23.406;2023-04-08T10:16:32;100222.50;;;20.14;nan
6349;BME280;3207;42.648;23.406;2023-04-08T10:18:59;100227.72;;;18.75;nan
6349;BME280;3207;42.648;23.406;2023-04-08T10:21:35;100223.66;;;18.96;nan
6349;BME280;3207;42.648;23.406;2023-04-08T10:24:07;100229.00;;;19.63;nan
6349;BME280;3207;42.648;23.406;2023-04-08T10:26:36;100217.22;;;19.49;nan
6349;BME280;3207;42.648;23.406;2023-04-08T10:32:07;100219.69;;;20.32;nan
6349;BME280;3207;42.648;23.406;2023-04-08T10:34:33;100213.53;;;20.48;nan
6349;BME280;3207;42.648;23.406;2023-04-08T10:37:00;100227.25;;;20.67;nan
6349;BME280;3207;42.648;23.406;2023-04-08T10:39:32;100221.41;;;20.80;nan
6349;BME280;3207;42.648;23.406;2023-04-08T10:42:00;100232.25;;;21.01;nan
6349;BME280;3207;42.648;23.406;2023-04-08T10:44:28;100226.28;;;21.07;nan
6349;BME280;3207;42.648;23.406;2023-04-08T10:46:55;100200.75;;;20.51;nan
6349;BME280;3207;42.648;23.406;2023-04-08T10:49:31;100221.81;;;20.53;nan
6349;BME280;3207;42.648;23.406;2023-04-08T10:51:58;100223.84;;;19.53;nan
6349;BME280;3207;42.648;23.406;2023-04-08T10:54:25;100220.22;;;19.87;nan
6349;BME280;3207;42.648;23.406;2023-04-08T10:56:54;100219.06;;;19.73;nan
6349;BME280;3207;42.648;23.406;2023-04-08T10:59:27;100207.88;;;19.37;nan
6349;BME280;3207;42.648;23.406;2023-04-08T11:01:54;100216.31;;;19.24;nan
6349;BME280;3207;42.648;23.406;2023-04-08T11:04:21;100224.84;;;19.02;nan
6349;BME280;3207;42.648;23.406;2023-04-08T11:06:48;100227.69;;;18.41;nan
6349;BME280;3207;42.648;23.406;2023-04-08T11:09:16;100218.03;;;18.32;nan
6349;BME280;3207;42.648;23.406;2023-04-08T11:11:44;100214.94;;;17.57;nan
6349;BME280;3207;42.648;23.406;2023-04-08T11:14:13;100210.22;;;18.04;nan
6349;BME280;3207;42.648;23.406;2023-04-08T11:16:41;100211.91;;;18.31;nan
6349;BME280;3207;42.648;23.406;2023-04-08T11:19:08;100204.19;;;18.46;nan
6349;BME280;3207;42.648;23.406;2023-04-08T11:21:36;100204.19;;;18.46;nan
6349;BME280;3207;42.648;23.406;2023-04-08T11:24:08;100207.66;;;18.64;nan
6349;BME280;3207;42.648;23.406;2023-04-08T11:26:36;100201.72;;;18.70;nan
6349;BME280;3207;42.648;23.406;2023-04-08T11:29:04;100196.03;;;18.65;nan
6349;BME280;3207;42.648;23.406;2023-04-08T11:31:32;100201.50;;;18.38;nan
6349;BME280;3207;42.648;23.406;2023-04-08T11:33:59;100203.22;;;17.95;nan
6349;BME280;3207;42.648;23.406;2023-04-08T11:36:28;100202.28;;;18.04;nan
6349;BME280;3207;42.648;23.406;2023-04-08T11:38:54;100206.28;;;18.08;nan
6349;BME280;3207;42.648;23.406;2023-04-08T11:41:21;100202.22;;;17.96;nan
6349;BME280;3207;42.648;23.406;2023-04-08T11:43:55;100201.34;;;18.13;nan
6349;BME280;3207;42.648;23.406;2023-04-08T11:46:23;100205.09;;;18.28;nan
6349;BME280;3207;42.648;23.406;2023-04-08T11:48:58;100203.81;;;18.33;nan
6349;BME280;3207;42.648;23.406;2023-04-08T11:51:25;100204.81;;;18.32;nan
6349;BME280;3207;42.648;23.406;2023-04-08T11:53:53;100195.22;;;18.13;nan
6349;BME280;3207;42.648;23.406;2023-04-08T11:56:20;100195.97;;;17.97;nan
6349;BME280;3207;42.648;23.406;2023-04-08T11:58:48;100193.53;;;17.50;nan
6349;BME280;3207;42.648;23.406;2023-04-08T12:01:15;100211.50;;;17.29;nan
6349;BME280;3207;42.648;23.406;2023-04-08T12:03:53;100203.22;;;16.97;nan
6349;BME280;3207;42.648;23.406;2023-04-08T12:06:22;100209.09;;;16.63;nan
6349;BME280;3207;42.648;23.406;2023-04-08T12:08:49;100203.84;;;16.44;nan
6349;BME280;3207;42.648;23.406;2023-04-08T12:11:16;100210.59;;;16.29;nan
6349;BME280;3207;42.648;23.406;2023-04-08T12:13:42;100213.09;;;16.21;nan
6349;BME280;3207;42.648;23.406;2023-04-08T12:16:09;100217.84;;;16.07;nan
6349;BME280;3207;42.648;23.406;2023-04-08T12:18:36;100213.94;;;16.11;nan
6349;BME280;3207;42.648;23.406;2023-04-08T12:21:03;100212.53;;;16.27;nan
6349;BME280;3207;42.648;23.406;2023-04-08T12:23:31;100206.66;;;16.33;nan
6349;BME280;3207;42.648;23.406;2023-04-08T12:25:58;100205.97;;;16.40;nan
6349;BME280;3207;42.648;23.406;2023-04-08T12:28:25;100210.34;;;16.59;nan
6349;BME280;3207;42.648;23.406;2023-04-08T12:30:52;100210.47;;;16.67;nan
6349;BME280;3207;42.648;23.406;2023-04-08T12:33:18;100206.75;;;16.88;nan
6349;BME280;3207;42.648;23.406;2023-04-08T12:35:45;100213.75;;;16.79;nan
6349;BME280;3207;42.648;23.406;2023-04-08T12:38:12;100204.38;;;16.57;nan
6349;BME280;3207;42.648;23.406;2023-04-08T12:40:40;100208.44;;;16.52;nan
6349;BME280;3207;42.648;23.406;2023-04-08T12:43:07;100199.69;;;16.51;nan
6349;BME280;3207;42.648;23.406;2023-04-08T12:45:34;100207.34;;;16.35;nan
6349;BME280;3207;42.648;23.406;2023-04-08T12:48:01;100207.91;;;16.38;nan
6349;BME280;3207;42.648;23.406;2023-04-08T12:50:27;100205.50;;;16.45;nan
6349;BME280;3207;42.648;23.406;2023-04-08T12:52:55;100203.84;;;16.44;nan
6349;BME280;3207;42.648;23.406;2023-04-08T12:55:22;100211.91;;;16.42;nan
6349;BME280;3207;42.648;23.406;2023-04-08T12:57:51;100208.59;;;16.40;nan
6349;BME280;3207;42.648;23.406;2023-04-08T13:00:19;100201.56;;;16.22;nan
6349;BME280;3207;42.648;23.406;2023-04-08T13:02:45;100200.91;;;16.10;nan
6349;BME280;3207;42.648;23.406;2023-04-08T13:05:12;100200.91;;;15.91;nan
6349;BME280;3207;42.648;23.406;2023-04-08T13:07:39;100205.78;;;15.95;nan
6349;BME280;3207;42.648;23.406;2023-04-08T13:10:07;100209.81;;;15.99;nan
6349;BME280;3207;42.648;23.406;2023-04-08T13:12:34;100201.88;;;15.90;nan
6349;BME280;3207;42.648;23.406;2023-04-08T13:15:05;100203.44;;;15.73;nan
6349;BME280;3207;42.648;23.406;2023-04-08T13:17:32;100199.84;;;15.55;nan
6349;BME280;3207;42.648;23.406;2023-04-08T13:19:59;100196.38;;;15.64;nan
6349;BME280;3207;42.648;23.406;2023-04-08T13:22:26;100198.75;;;15.67;nan
6349;BME280;3207;42.648;23.406;2023-04-08T13:24:53;100205.63;;;15.49;nan
6349;BME280;3207;42.648;23.406;2023-04-08T13:27:20;100191.34;;;15.42;nan
6349;BME280;3207;42.648;23.406;2023-04-08T13:29:47;100197.59;;;15.50;nan
6349;BME280;3207;42.648;23.406;2023-04-08T13:32:15;100195.09;;;15.49;nan